Time;durP1;ratioP1;P1;durP2;ratioP2;P2;SDS_P1;SDS_P2;PMS_P1;PMS_P2;Temp;Humidity;BMP_temperature;BMP_pressure;BME280_temperature;BME280_humidity;BME280_pressure;Samples;Min_cycle;Max_cycle;Signal;HPM_P1;HPM_P2
2022/10/25 00:01:28;;;;;;;2.90;1.17;;;;;;;;;;5029624;28;20190;-85
2022/10/25 00:03:53;;;;;;;3.47;1.40;;;;;;;;;;5031114;28;20186;-86
2022/10/25 00:06:18;;;;;;;1.70;1.30;;;;;;;;;;5030316;28;20186;-86
2022/10/25 00:08:43;;;;;;;3.50;1.60;;;;;;;;;;5031131;28;20256;-86
2022/10/25 00:11:12;;;;;;;3.10;1.50;;;;;;;;;;5028415;28;20193;-85
2022/10/25 00:13:37;;;;;;;5.03;1.30;;;;;;;;;;5030907;28;20182;-86
2022/10/25 00:16:02;;;;;;;6.87;2.27;;;;;;;;;;5029215;28;20183;-87
2022/10/25 00:18:27;;;;;;;2.13;1.27;;;;;;;;;;5028556;28;20178;-87
2022/10/25 00:20:53;;;;;;;2.23;1.20;;;;;;;;;;5031494;28;20272;-85
2022/10/25 00:23:18;;;;;;;4.97;1.20;;;;;;;;;;5032052;28;20348;-85
2022/10/25 00:25:43;;;;;;;3.77;1.90;;;;;;;;;;5024002;28;20182;-86
2022/10/25 00:28:09;;;;;;;5.47;1.97;;;;;;;;;;5031071;28;20285;-85
2022/10/25 00:30:34;;;;;;;3.00;1.23;;;;;;;;;;5031029;28;20221;-86
2022/10/25 00:32:59;;;;;;;2.70;1.23;;;;;;;;;;5026214;28;20197;-85
2022/10/25 00:35:24;;;;;;;5.13;1.40;;;;;;;;;;5028191;28;20210;-85
2022/10/25 00:37:50;;;;;;;7.70;1.80;;;;;;;;;;5030197;28;20187;-85
2022/10/25 00:40:16;;;;;;;4.20;1.90;;;;;;;;;;5025511;28;20186;-84
2022/10/25 00:42:41;;;;;;;4.70;1.37;;;;;;;;;;5027708;28;20212;-85
2022/10/25 00:45:21;;;;;;;4.30;1.70;;;;;;;;;;5018900;28;20231;-85
2022/10/25 00:47:48;;;;;;;5.20;1.53;;;;;;;;;;5025365;28;20273;-86
2022/10/25 00:50:29;;;;;;;3.43;1.37;;;;;;;;;;5027964;28;20183;-85
2022/10/25 00:52:56;;;;;;;4.60;1.83;;;;;;;;;;5024247;28;20233;-85
2022/10/25 00:55:22;;;;;;;3.33;1.47;;;;;;;;;;5025711;28;20186;-86
2022/10/25 00:57:51;;;;;;;1.63;1.40;;;;;;;;;;5028737;28;20178;-85
2022/10/25 01:00:16;;;;;;;2.93;1.60;;;;;;;;;;5029274;28;20194;-85
2022/10/25 01:02:41;;;;;;;6.00;1.90;;;;;;;;;;5026745;28;20235;-84
2022/10/25 01:05:07;;;;;;;3.93;2.07;;;;;;;;;;5026703;28;20181;-86
2022/10/25 01:07:32;;;;;;;9.60;2.00;;;;;;;;;;5029815;28;20208;-85
2022/10/25 01:09:57;;;;;;;2.37;1.70;;;;;;;;;;5029400;28;20193;-86
2022/10/25 01:12:22;;;;;;;3.10;1.53;;;;;;;;;;5036328;28;20178;-86
2022/10/25 01:14:49;;;;;;;3.93;2.47;;;;;;;;;;5027861;28;20190;-86
2022/10/25 01:17:23;;;;;;;4.77;1.93;;;;;;;;;;5026827;28;20181;-86
2022/10/25 01:19:58;;;;;;;2.80;1.60;;;;;;;;;;5025857;28;20193;-85
2022/10/25 01:22:23;;;;;;;1.93;1.50;;;;;;;;;;5028515;28;20201;-85
2022/10/25 01:25:04;;;;;;;6.27;1.80;;;;;;;;;;5027620;28;20185;-86
2022/10/25 01:27:44;;;;;;;4.73;2.10;;;;;;;;;;5024277;28;20181;-84
2022/10/25 01:30:13;;;;;;;4.20;1.67;;;;;;;;;;5031711;28;20229;-86
2022/10/25 01:32:44;;;;;;;5.23;1.77;;;;;;;;;;5033672;28;20185;-86
2022/10/25 01:35:45;;;;;;;3.50;1.30;;;;;;;;;;5027580;28;20193;-86
2022/10/25 01:38:19;;;;;;;3.37;1.60;;;;;;;;;;4972425;28;20184;-86
2022/10/25 01:41:00;;;;;;;4.33;1.73;;;;;;;;;;4988258;28;20217;-86
2022/10/25 01:43:29;;;;;;;3.80;1.60;;;;;;;;;;4971331;28;20210;-86
2022/10/25 01:46:04;;;;;;;2.23;1.70;;;;;;;;;;4969726;28;20192;-86
2022/10/25 01:48:33;;;;;;;5.97;1.63;;;;;;;;;;4969897;28;20175;-85
2022/10/25 01:51:03;;;;;;;4.20;1.43;;;;;;;;;;4966522;28;20191;-86
2022/10/25 01:53:28;;;;;;;2.60;1.30;;;;;;;;;;4980923;28;20201;-86
2022/10/25 01:55:56;;;;;;;2.33;1.63;;;;;;;;;;4969842;28;20191;-86
2022/10/25 01:58:40;;;;;;;3.00;1.50;;;;;;;;;;4983852;28;20184;-85
2022/10/25 02:01:31;;;;;;;2.43;1.30;;;;;;;;;;4981423;28;20183;-85
2022/10/25 02:04:04;;;;;;;1.67;1.40;;;;;;;;;;4936885;28;20194;-85
2022/10/25 02:06:35;;;;;;;3.87;1.63;;;;;;;;;;4978933;28;20222;-86
2022/10/25 02:09:15;;;;;;;1.97;1.30;;;;;;;;;;4976965;28;20184;-86
2022/10/25 02:11:40;;;;;;;4.80;1.77;;;;;;;;;;5008138;28;20236;-86
2022/10/25 02:14:24;;;;;;;3.83;1.90;;;;;;;;;;5036542;28;20217;-84
2022/10/25 02:16:50;;;;;;;3.37;1.40;;;;;;;;;;5036585;28;20207;-85
2022/10/25 02:19:17;;;;;;;3.57;1.60;;;;;;;;;;5041033;28;20211;-85
2022/10/25 02:21:44;;;;;;;5.30;1.50;;;;;;;;;;5036225;28;20191;-85
2022/10/25 02:24:20;;;;;;;7.43;1.70;;;;;;;;;;5033714;28;20208;-85
2022/10/25 02:26:46;;;;;;;3.53;1.60;;;;;;;;;;5030939;28;20187;-86
2022/10/25 02:29:12;;;;;;;3.87;1.93;;;;;;;;;;5037332;28;20233;-85
2022/10/25 02:31:37;;;;;;;3.63;1.90;;;;;;;;;;5056480;28;20288;-85
2022/10/25 02:34:02;;;;;;;1.90;1.40;;;;;;;;;;5035051;28;20189;-84
2022/10/25 02:36:28;;;;;;;6.47;1.43;;;;;;;;;;5034495;28;20173;-86
2022/10/25 02:38:53;;;;;;;2.00;1.50;;;;;;;;;;5036287;28;20888;-85
2022/10/25 02:41:19;;;;;;;4.33;1.90;;;;;;;;;;5037829;28;20185;-85
2022/10/25 02:43:44;;;;;;;4.30;1.77;;;;;;;;;;5039686;28;20208;-84
2022/10/25 02:46:11;;;;;;;2.97;1.80;;;;;;;;;;5034837;28;20174;-86
2022/10/25 02:48:37;;;;;;;4.47;1.60;;;;;;;;;;5036424;28;20265;-85
2022/10/25 02:51:03;;;;;;;2.87;0.93;;;;;;;;;;5033698;28;20268;-84
2022/10/25 02:53:28;;;;;;;1.63;1.17;;;;;;;;;;5028392;28;20185;-87
2022/10/25 02:56:07;;;;;;;8.57;1.63;;;;;;;;;;5034920;28;20319;-86
2022/10/25 02:58:33;;;;;;;4.23;1.73;;;;;;;;;;5035859;28;20185;-85
2022/10/25 03:00:59;;;;;;;2.23;1.43;;;;;;;;;;5034597;28;20233;-85
2022/10/25 03:03:25;;;;;;;4.63;1.73;;;;;;;;;;5033711;28;20214;-84
2022/10/25 03:05:50;;;;;;;1.93;1.13;;;;;;;;;;5036184;28;20195;-86
2022/10/25 03:08:15;;;;;;;2.37;1.73;;;;;;;;;;5035045;28;20180;-85
2022/10/25 03:10:40;;;;;;;3.10;1.43;;;;;;;;;;5037237;28;20424;-84
2022/10/25 03:13:05;;;;;;;6.90;1.80;;;;;;;;;;5031286;28;20186;-83
2022/10/25 03:15:31;;;;;;;1.90;1.33;;;;;;;;;;5036369;28;20224;-85
2022/10/25 03:17:56;;;;;;;5.67;1.40;;;;;;;;;;5034416;28;20181;-86
2022/10/25 03:20:21;;;;;;;3.30;1.50;;;;;;;;;;5030055;28;20189;-85
2022/10/25 03:22:46;;;;;;;6.30;1.40;;;;;;;;;;5030387;28;20217;-86
2022/10/25 03:25:11;;;;;;;1.87;1.53;;;;;;;;;;5049485;28;20177;-85
2022/10/25 03:27:37;;;;;;;3.10;1.50;;;;;;;;;;5035493;28;20178;-83
2022/10/25 03:30:02;;;;;;;4.13;1.27;;;;;;;;;;5031726;28;20232;-86
2022/10/25 03:32:27;;;;;;;3.87;1.43;;;;;;;;;;5034704;28;20242;-84
2022/10/25 03:34:52;;;;;;;4.37;1.50;;;;;;;;;;5051285;28;20180;-86
2022/10/25 03:37:18;;;;;;;6.43;2.30;;;;;;;;;;5052220;28;20193;-85
2022/10/25 03:39:43;;;;;;;5.23;1.60;;;;;;;;;;5035466;28;20181;-85
2022/10/25 03:42:08;;;;;;;4.27;1.37;;;;;;;;;;5021980;28;20205;-85
2022/10/25 03:44:33;;;;;;;3.97;1.57;;;;;;;;;;5025640;28;20178;-84
2022/10/25 03:46:58;;;;;;;4.20;1.60;;;;;;;;;;5031976;28;20242;-85
2022/10/25 03:49:25;;;;;;;3.13;1.47;;;;;;;;;;5029638;28;20176;-83
2022/10/25 03:51:50;;;;;;;3.90;1.57;;;;;;;;;;5034695;28;20213;-84
2022/10/25 03:54:15;;;;;;;2.70;1.47;;;;;;;;;;5034729;28;20219;-85
2022/10/25 03:56:40;;;;;;;7.20;1.50;;;;;;;;;;5032921;28;20268;-85
2022/10/25 03:59:05;;;;;;;2.80;1.97;;;;;;;;;;5039226;28;20176;-83
2022/10/25 04:01:31;;;;;;;3.20;1.30;;;;;;;;;;5032201;28;20196;-85
2022/10/25 04:03:56;;;;;;;3.17;1.40;;;;;;;;;;5028601;28;20255;-83
2022/10/25 04:06:21;;;;;;;3.30;1.50;;;;;;;;;;5027224;28;20189;-86
2022/10/25 04:08:46;;;;;;;6.40;1.80;;;;;;;;;;5033074;28;20226;-84
2022/10/25 04:11:11;;;;;;;1.93;1.70;;;;;;;;;;5033331;28;20276;-86
2022/10/25 04:13:37;;;;;;;3.57;1.50;;;;;;;;;;5034368;28;20216;-85
2022/10/25 04:16:06;;;;;;;6.93;2.13;;;;;;;;;;5029230;28;20187;-85
2022/10/25 04:18:31;;;;;;;4.97;2.30;;;;;;;;;;5030489;28;20189;-85
2022/10/25 04:20:57;;;;;;;3.23;1.60;;;;;;;;;;5037475;28;20188;-86
2022/10/25 04:23:22;;;;;;;4.73;1.50;;;;;;;;;;5030226;28;20218;-86
2022/10/25 04:25:47;;;;;;;9.47;2.17;;;;;;;;;;5033341;28;20184;-85
2022/10/25 04:28:12;;;;;;;5.70;1.50;;;;;;;;;;5029905;28;20211;-85
2022/10/25 04:30:37;;;;;;;2.57;1.50;;;;;;;;;;5033063;28;20523;-85
2022/10/25 04:33:03;;;;;;;5.43;1.33;;;;;;;;;;5030106;28;20267;-84
2022/10/25 04:35:28;;;;;;;4.57;1.53;;;;;;;;;;5026287;28;20184;-86
2022/10/25 04:37:55;;;;;;;2.73;2.10;;;;;;;;;;5029460;28;20182;-85
2022/10/25 04:40:20;;;;;;;2.73;1.50;;;;;;;;;;5035688;28;20196;-85
2022/10/25 04:42:45;;;;;;;3.67;1.90;;;;;;;;;;5030947;28;20197;-84
2022/10/25 04:45:11;;;;;;;7.90;2.90;;;;;;;;;;5029611;28;20273;-86
2022/10/25 04:47:36;;;;;;;5.83;1.90;;;;;;;;;;5034205;28;20220;-86
2022/10/25 04:50:01;;;;;;;6.00;1.80;;;;;;;;;;5029531;28;20311;-85
2022/10/25 04:52:27;;;;;;;4.57;1.60;;;;;;;;;;5018336;28;20209;-85
2022/10/25 04:54:53;;;;;;;7.27;1.87;;;;;;;;;;5027953;28;20253;-85
2022/10/25 04:57:18;;;;;;;4.23;1.87;;;;;;;;;;5026486;28;20190;-83
2022/10/25 04:59:43;;;;;;;2.13;1.47;;;;;;;;;;5028138;28;20185;-86
2022/10/25 05:02:08;;;;;;;4.67;1.30;;;;;;;;;;5025763;28;20228;-85
2022/10/25 05:04:33;;;;;;;2.03;1.60;;;;;;;;;;5023028;28;20176;-84
2022/10/25 05:06:59;;;;;;;2.73;1.50;;;;;;;;;;5028852;28;20281;-86
2022/10/25 05:09:24;;;;;;;2.27;1.37;;;;;;;;;;5028415;28;20181;-85
2022/10/25 05:11:49;;;;;;;4.73;1.67;;;;;;;;;;5027506;28;20174;-85
2022/10/25 05:14:14;;;;;;;4.93;1.93;;;;;;;;;;5022223;28;20190;-85
2022/10/25 05:16:40;;;;;;;3.27;1.37;;;;;;;;;;5027785;28;20189;-84
2022/10/25 05:19:05;;;;;;;5.63;1.50;;;;;;;;;;5023252;28;20182;-85
2022/10/25 05:21:30;;;;;;;5.30;2.33;;;;;;;;;;5033180;28;20208;-84
2022/10/25 05:23:56;;;;;;;4.43;2.00;;;;;;;;;;5023364;28;20209;-86
2022/10/25 05:26:22;;;;;;;3.73;1.53;;;;;;;;;;5023456;28;20275;-86
2022/10/25 05:28:48;;;;;;;4.40;1.77;;;;;;;;;;5029366;28;20209;-85
2022/10/25 05:31:15;;;;;;;6.40;1.80;;;;;;;;;;5028510;28;20304;-86
2022/10/25 05:33:40;;;;;;;4.13;1.40;;;;;;;;;;5027465;28;20216;-85
2022/10/25 05:36:06;;;;;;;4.07;2.40;;;;;;;;;;5024879;28;20198;-83
2022/10/25 05:38:31;;;;;;;8.93;2.13;;;;;;;;;;5037114;28;20188;-85
2022/10/25 05:40:57;;;;;;;4.53;1.40;;;;;;;;;;5033969;28;20219;-85
2022/10/25 05:43:22;;;;;;;2.10;1.20;;;;;;;;;;5023251;28;20204;-86
2022/10/25 05:45:48;;;;;;;3.90;1.50;;;;;;;;;;5028984;28;20201;-87
2022/10/25 05:48:13;;;;;;;2.50;1.60;;;;;;;;;;5030752;28;20250;-85
2022/10/25 05:50:38;;;;;;;4.90;1.70;;;;;;;;;;5039754;28;20252;-85
2022/10/25 05:53:03;;;;;;;2.20;1.50;;;;;;;;;;5036497;28;20183;-86
2022/10/25 05:55:29;;;;;;;4.30;1.50;;;;;;;;;;5032646;28;20192;-85
2022/10/25 05:57:54;;;;;;;4.57;1.47;;;;;;;;;;5035660;28;20188;-87
2022/10/25 06:00:19;;;;;;;5.30;1.80;;;;;;;;;;5032923;28;20181;-85
2022/10/25 06:02:44;;;;;;;6.53;1.80;;;;;;;;;;5036202;28;20196;-86
2022/10/25 06:05:10;;;;;;;2.60;1.77;;;;;;;;;;5026259;28;20186;-86
2022/10/25 06:07:35;;;;;;;3.53;1.40;;;;;;;;;;5031913;28;20180;-84
2022/10/25 06:10:00;;;;;;;5.23;1.73;;;;;;;;;;5029922;28;20175;-85
2022/10/25 06:12:25;;;;;;;3.93;1.50;;;;;;;;;;5033131;28;20186;-86
2022/10/25 06:14:51;;;;;;;7.90;1.83;;;;;;;;;;5036015;28;20191;-86
2022/10/25 06:17:16;;;;;;;4.20;1.90;;;;;;;;;;5041048;28;20278;-87
2022/10/25 06:19:41;;;;;;;4.77;1.50;;;;;;;;;;5032363;28;20271;-85
2022/10/25 06:22:06;;;;;;;3.87;2.00;;;;;;;;;;5026703;28;20210;-86
2022/10/25 06:24:32;;;;;;;1.93;1.63;;;;;;;;;;5032132;28;20188;-85
2022/10/25 06:26:57;;;;;;;4.23;1.70;;;;;;;;;;5034478;28;20199;-85
2022/10/25 06:29:22;;;;;;;3.33;1.80;;;;;;;;;;5034252;28;20197;-87
2022/10/25 06:31:48;;;;;;;3.00;1.20;;;;;;;;;;5033029;28;20228;-85
2022/10/25 06:34:13;;;;;;;6.93;1.83;;;;;;;;;;5031435;28;20177;-84
2022/10/25 06:36:39;;;;;;;5.33;1.80;;;;;;;;;;5031055;28;20265;-86
2022/10/25 06:39:04;;;;;;;5.87;1.90;;;;;;;;;;5036169;28;20191;-85
2022/10/25 06:41:30;;;;;;;2.70;1.40;;;;;;;;;;5032099;28;20257;-86
2022/10/25 06:43:57;;;;;;;5.03;1.90;;;;;;;;;;5029885;28;20214;-86
2022/10/25 06:46:27;;;;;;;2.67;1.60;;;;;;;;;;5037490;28;20183;-85
2022/10/25 06:48:55;;;;;;;2.93;1.57;;;;;;;;;;5032253;28;20181;-86
2022/10/25 06:51:20;;;;;;;3.73;1.70;;;;;;;;;;5031491;28;20189;-86
2022/10/25 06:53:46;;;;;;;2.60;1.60;;;;;;;;;;5032484;28;20326;-86
2022/10/25 06:56:12;;;;;;;4.37;1.70;;;;;;;;;;5031050;28;20212;-87
2022/10/25 06:58:37;;;;;;;3.03;2.30;;;;;;;;;;5030499;28;20303;-85
2022/10/25 07:01:07;;;;;;;4.03;1.93;;;;;;;;;;5030386;28;20188;-86
2022/10/25 07:03:35;;;;;;;5.93;2.67;;;;;;;;;;5030091;28;20217;-84
2022/10/25 07:06:02;;;;;;;4.00;2.97;;;;;;;;;;5034376;28;20185;-85
2022/10/25 07:08:27;;;;;;;4.10;2.50;;;;;;;;;;5030589;28;20181;-85
2022/10/25 07:10:53;;;;;;;2.70;1.80;;;;;;;;;;5032097;28;20184;-85
2022/10/25 07:13:19;;;;;;;6.50;2.57;;;;;;;;;;5040289;28;20177;-86
2022/10/25 07:15:44;;;;;;;3.30;1.97;;;;;;;;;;5031273;28;20194;-85
2022/10/25 07:18:09;;;;;;;5.83;1.80;;;;;;;;;;5031579;28;20328;-85
2022/10/25 07:20:34;;;;;;;6.13;2.10;;;;;;;;;;5031262;28;20184;-85
2022/10/25 07:22:59;;;;;;;6.40;2.30;;;;;;;;;;5041844;28;20201;-85
2022/10/25 07:25:25;;;;;;;2.17;1.97;;;;;;;;;;5037872;28;20639;-84
2022/10/25 07:27:50;;;;;;;8.33;5.20;;;;;;;;;;5033041;28;20235;-85
2022/10/25 07:30:15;;;;;;;5.33;2.80;;;;;;;;;;5036245;28;20319;-86
2022/10/25 07:32:40;;;;;;;5.10;3.57;;;;;;;;;;5035445;28;20242;-86
2022/10/25 07:35:06;;;;;;;7.10;2.73;;;;;;;;;;5039904;28;20181;-84
2022/10/25 07:37:31;;;;;;;5.13;2.23;;;;;;;;;;5030771;28;20238;-84
2022/10/25 07:39:56;;;;;;;3.17;2.50;;;;;;;;;;5031678;28;20180;-85
2022/10/25 07:42:21;;;;;;;2.10;1.90;;;;;;;;;;5034039;28;20202;-84
2022/10/25 07:44:46;;;;;;;6.13;2.83;;;;;;;;;;5031048;28;20178;-85
2022/10/25 07:47:12;;;;;;;3.40;2.20;;;;;;;;;;5041446;28;20264;-84
2022/10/25 07:49:38;;;;;;;3.50;2.33;;;;;;;;;;5039799;28;20174;-85
2022/10/25 07:52:04;;;;;;;4.67;1.70;;;;;;;;;;5039495;28;20181;-86
2022/10/25 07:54:30;;;;;;;5.80;2.30;;;;;;;;;;5035209;28;20186;-85
2022/10/25 07:56:55;;;;;;;2.97;1.77;;;;;;;;;;5034792;28;20193;-84
2022/10/25 07:59:20;;;;;;;5.00;1.60;;;;;;;;;;5047455;28;20190;-84
2022/10/25 08:01:46;;;;;;;5.03;2.00;;;;;;;;;;5039859;28;20185;-84
2022/10/25 08:04:11;;;;;;;1.50;1.30;;;;;;;;;;5054975;28;20182;-85
2022/10/25 08:06:36;;;;;;;3.20;1.30;;;;;;;;;;5034417;28;20309;-84
2022/10/25 08:09:01;;;;;;;2.10;1.40;;;;;;;;;;5032472;28;20249;-83
2022/10/25 08:11:26;;;;;;;3.47;1.40;;;;;;;;;;5030479;28;20231;-84
2022/10/25 08:13:52;;;;;;;1.50;1.00;;;;;;;;;;5027590;28;20182;-84
2022/10/25 08:16:17;;;;;;;6.13;2.30;;;;;;;;;;5032328;28;20183;-83
2022/10/25 08:18:42;;;;;;;5.70;1.73;;;;;;;;;;5040430;28;20186;-84
2022/10/25 08:21:08;;;;;;;5.83;2.20;;;;;;;;;;5050786;28;20213;-84
2022/10/25 08:23:33;;;;;;;4.00;1.30;;;;;;;;;;5035892;28;20204;-84
2022/10/25 08:25:59;;;;;;;3.47;1.50;;;;;;;;;;5038877;28;20173;-83
2022/10/25 08:28:24;;;;;;;5.57;1.57;;;;;;;;;;5038560;28;20254;-83
2022/10/25 08:30:51;;;;;;;6.73;1.70;;;;;;;;;;5033596;28;20266;-83
2022/10/25 08:33:16;;;;;;;3.73;1.70;;;;;;;;;;5031283;28;20189;-83
2022/10/25 08:35:41;;;;;;;2.87;1.90;;;;;;;;;;5040762;28;20178;-84
2022/10/25 08:38:07;;;;;;;2.60;1.70;;;;;;;;;;5030656;28;20231;-83
2022/10/25 08:40:51;;;;;;;2.90;1.33;;;;;;;;;;5034762;28;20185;-83
2022/10/25 08:43:16;;;;;;;4.67;1.30;;;;;;;;;;5028363;28;20222;-83
2022/10/25 08:45:51;;;;;;;1.80;1.40;;;;;;;;;;5041620;28;20175;-83
2022/10/25 08:48:19;;;;;;;3.63;1.13;;;;;;;;;;5030790;28;20183;-83
2022/10/25 08:50:47;;;;;;;3.37;1.30;;;;;;;;;;5030355;28;20192;-83
2022/10/25 08:53:16;;;;;;;4.27;1.47;;;;;;;;;;5034516;28;20221;-83
2022/10/25 08:55:42;;;;;;;4.33;1.57;;;;;;;;;;5031742;28;20213;-83
2022/10/25 08:58:12;;;;;;;3.60;1.20;;;;;;;;;;5030486;28;20185;-82
2022/10/25 09:00:39;;;;;;;4.60;1.80;;;;;;;;;;5030841;28;20231;-83
2022/10/25 09:03:11;;;;;;;3.60;1.30;;;;;;;;;;5030388;28;20245;-83
2022/10/25 09:05:41;;;;;;;2.50;1.40;;;;;;;;;;5018601;28;20211;-83
2022/10/25 09:08:17;;;;;;;3.17;1.43;;;;;;;;;;5030972;28;20298;-83
2022/10/25 09:10:54;;;;;;;7.00;1.47;;;;;;;;;;5028778;28;20166;-83
2022/10/25 09:13:28;;;;;;;2.03;1.30;;;;;;;;;;5028885;28;20181;-83
2022/10/25 09:16:00;;;;;;;3.27;1.07;;;;;;;;;;5030545;28;20186;-83
2022/10/25 09:18:45;;;;;;;4.57;1.93;;;;;;;;;;5035818;28;20254;-82
2022/10/25 09:21:15;;;;;;;2.50;1.53;;;;;;;;;;5032190;28;20312;-83
2022/10/25 09:23:41;;;;;;;2.03;1.20;;;;;;;;;;5032265;28;20198;-83
2022/10/25 09:26:07;;;;;;;2.10;1.17;;;;;;;;;;5029723;28;20175;-83
2022/10/25 09:28:51;;;;;;;3.57;1.10;;;;;;;;;;5038390;28;20199;-82
2022/10/25 09:31:22;;;;;;;3.37;1.40;;;;;;;;;;5027722;28;20302;-83
2022/10/25 09:33:49;;;;;;;1.17;1.07;;;;;;;;;;5031496;28;20179;-83
2022/10/25 09:36:14;;;;;;;3.33;1.30;;;;;;;;;;5033486;28;20185;-82
2022/10/25 09:38:39;;;;;;;2.80;1.20;;;;;;;;;;5030614;28;20176;-82
2022/10/25 09:41:08;;;;;;;3.10;1.30;;;;;;;;;;5035505;28;20202;-82
2022/10/25 09:43:45;;;;;;;4.37;1.70;;;;;;;;;;5034304;28;20218;-83
2022/10/25 09:46:13;;;;;;;3.10;1.30;;;;;;;;;;5028646;28;20178;-83
2022/10/25 09:48:48;;;;;;;2.97;1.20;;;;;;;;;;5037587;28;20200;-82
2022/10/25 09:51:14;;;;;;;3.80;1.17;;;;;;;;;;5030360;28;20916;-83
2022/10/25 09:53:40;;;;;;;3.00;1.20;;;;;;;;;;5030561;28;20286;-83
2022/10/25 09:56:06;;;;;;;2.57;1.10;;;;;;;;;;5030468;28;20175;-82
2022/10/25 09:58:32;;;;;;;2.47;1.30;;;;;;;;;;5029483;28;20178;-83
2022/10/25 10:01:05;;;;;;;4.70;1.60;;;;;;;;;;5033105;28;20266;-83
2022/10/25 10:03:31;;;;;;;3.00;1.20;;;;;;;;;;5029697;28;20203;-83
2022/10/25 10:05:59;;;;;;;4.70;1.80;;;;;;;;;;5029759;28;20187;-82
2022/10/25 10:08:24;;;;;;;5.03;1.90;;;;;;;;;;5028265;28;20273;-83
2022/10/25 10:10:50;;;;;;;3.00;1.30;;;;;;;;;;5035902;28;20259;-83
2022/10/25 10:13:18;;;;;;;3.63;1.10;;;;;;;;;;5029242;28;20192;-83
2022/10/25 10:15:53;;;;;;;5.37;1.50;;;;;;;;;;5029832;28;20180;-82
2022/10/25 10:18:27;;;;;;;3.10;1.77;;;;;;;;;;5030830;28;20270;-82
2022/10/25 10:21:05;;;;;;;3.37;1.50;;;;;;;;;;5030583;28;20183;-83
2022/10/25 10:23:32;;;;;;;1.47;1.10;;;;;;;;;;5029188;28;20211;-83
2022/10/25 10:26:01;;;;;;;2.50;1.20;;;;;;;;;;5029485;28;20173;-83
2022/10/25 10:28:26;;;;;;;2.67;1.27;;;;;;;;;;5029086;28;20190;-82
2022/10/25 10:30:53;;;;;;;4.83;1.60;;;;;;;;;;5031420;28;20287;-83
2022/10/25 10:33:19;;;;;;;3.37;1.40;;;;;;;;;;5037352;28;20213;-82
2022/10/25 10:35:44;;;;;;;3.37;1.40;;;;;;;;;;5036837;28;20207;-83
2022/10/25 10:38:19;;;;;;;3.87;1.87;;;;;;;;;;5037946;28;20179;-83
2022/10/25 10:40:44;;;;;;;2.77;1.20;;;;;;;;;;5032434;28;20180;-83
2022/10/25 10:43:28;;;;;;;2.17;1.30;;;;;;;;;;5032939;28;20201;-83
2022/10/25 10:45:57;;;;;;;5.97;1.47;;;;;;;;;;5027814;28;20173;-83
2022/10/25 10:48:23;;;;;;;6.93;2.80;;;;;;;;;;5033418;28;20185;-83
2022/10/25 10:50:49;;;;;;;3.00;1.50;;;;;;;;;;5031020;28;20188;-83
2022/10/25 10:53:19;;;;;;;3.93;1.57;;;;;;;;;;5033746;28;20187;-82
2022/10/25 10:55:45;;;;;;;1.70;1.40;;;;;;;;;;5032049;28;20183;-83
2022/10/25 10:58:29;;;;;;;6.70;1.40;;;;;;;;;;5033765;28;20191;-82
2022/10/25 11:00:56;;;;;;;3.60;1.63;;;;;;;;;;5033052;28;20331;-82
2022/10/25 11:03:33;;;;;;;2.50;1.20;;;;;;;;;;5032101;28;20196;-83
2022/10/25 11:05:59;;;;;;;3.30;1.30;;;;;;;;;;5030890;28;20168;-82
2022/10/25 11:08:24;;;;;;;3.47;1.67;;;;;;;;;;5032546;28;20334;-82
2022/10/25 11:10:49;;;;;;;5.40;1.10;;;;;;;;;;5033059;28;20311;-83
2022/10/25 11:13:18;;;;;;;2.60;1.23;;;;;;;;;;5028974;28;20186;-82
2022/10/25 11:15:51;;;;;;;2.60;1.60;;;;;;;;;;5022712;28;20188;-83
2022/10/25 11:18:17;;;;;;;2.40;1.20;;;;;;;;;;5034559;28;20183;-83
2022/10/25 11:20:52;;;;;;;2.17;1.17;;;;;;;;;;5031678;28;20184;-82
2022/10/25 11:23:26;;;;;;;4.17;1.10;;;;;;;;;;5032021;28;20216;-82
2022/10/25 11:26:02;;;;;;;4.87;1.80;;;;;;;;;;5036356;28;20191;-83
2022/10/25 11:28:33;;;;;;;1.50;1.30;;;;;;;;;;5040258;28;20274;-83
2022/10/25 11:31:01;;;;;;;2.47;1.60;;;;;;;;;;5031723;28;20226;-82
2022/10/25 11:33:53;;;;;;;4.43;2.17;;;;;;;;;;5032411;28;20181;-83
2022/10/25 11:36:37;;;;;;;3.27;1.20;;;;;;;;;;5002555;28;20245;-82
2022/10/25 11:39:15;;;;;;;3.13;1.70;;;;;;;;;;5032243;28;20195;-82
2022/10/25 11:41:47;;;;;;;2.60;1.27;;;;;;;;;;5035243;28;20181;-82
2022/10/25 11:44:33;;;;;;;2.37;1.37;;;;;;;;;;5035864;28;20377;-82
2022/10/25 11:47:08;;;;;;;3.73;1.10;;;;;;;;;;5032291;28;20173;-83
2022/10/25 11:49:49;;;;;;;1.23;0.90;;;;;;;;;;5024316;28;20186;-83
2022/10/25 11:52:17;;;;;;;2.20;1.30;;;;;;;;;;5031899;28;20187;-82
2022/10/25 11:54:48;;;;;;;2.83;1.30;;;;;;;;;;5028068;28;20175;-82
2022/10/25 11:57:24;;;;;;;1.97;0.90;;;;;;;;;;5034554;28;20174;-82
2022/10/25 12:00:01;;;;;;;1.70;0.93;;;;;;;;;;5031188;28;20221;-82
2022/10/25 12:02:42;;;;;;;4.33;1.23;;;;;;;;;;5039466;28;20226;-82
2022/10/25 12:05:12;;;;;;;1.00;0.90;;;;;;;;;;5030826;28;20264;-81
2022/10/25 12:07:37;;;;;;;1.03;0.93;;;;;;;;;;5038107;28;20231;-81
2022/10/25 12:10:21;;;;;;;2.00;1.17;;;;;;;;;;5033998;28;20179;-82
2022/10/25 12:12:49;;;;;;;2.77;1.33;;;;;;;;;;5041668;28;20183;-82
2022/10/25 12:15:20;;;;;;;1.13;1.03;;;;;;;;;;5031695;28;20264;-82
2022/10/25 12:17:45;;;;;;;3.13;1.30;;;;;;;;;;5040799;28;20183;-82
2022/10/25 12:20:18;;;;;;;3.10;1.37;;;;;;;;;;5034803;28;20186;-82
2022/10/25 12:22:45;;;;;;;1.30;1.13;;;;;;;;;;5035914;28;20192;-82
2022/10/25 12:25:19;;;;;;;3.90;1.47;;;;;;;;;;5031042;28;20177;-82
2022/10/25 12:27:46;;;;;;;2.33;1.10;;;;;;;;;;5040079;28;20200;-82
2022/10/25 12:30:16;;;;;;;2.83;1.13;;;;;;;;;;5034573;28;20176;-82
2022/10/25 12:32:49;;;;;;;2.00;1.10;;;;;;;;;;5033102;28;20190;-82
2022/10/25 12:35:26;;;;;;;2.60;1.20;;;;;;;;;;5034798;28;20637;-82
2022/10/25 12:37:53;;;;;;;3.10;1.27;;;;;;;;;;5028865;28;20215;-82
2022/10/25 12:40:19;;;;;;;5.50;1.80;;;;;;;;;;5040327;28;20266;-82
2022/10/25 12:42:48;;;;;;;4.27;1.33;;;;;;;;;;5039719;28;20222;-82
2022/10/25 12:45:27;;;;;;;4.63;1.00;;;;;;;;;;5040011;28;20182;-81
2022/10/25 12:48:07;;;;;;;2.00;1.33;;;;;;;;;;5038824;28;20208;-82
2022/10/25 12:50:51;;;;;;;3.23;2.00;;;;;;;;;;5044542;28;20178;-82
2022/10/25 12:53:25;;;;;;;2.70;1.60;;;;;;;;;;5050006;28;20195;-82
2022/10/25 12:56:17;;;;;;;1.80;1.70;;;;;;;;;;5051186;28;20275;-82
2022/10/25 12:58:51;;;;;;;2.73;1.30;;;;;;;;;;5041152;28;20237;-81
2022/10/25 13:01:17;;;;;;;2.43;0.90;;;;;;;;;;5048450;28;20261;-82
2022/10/25 13:03:42;;;;;;;3.67;1.30;;;;;;;;;;5033479;28;20260;-82
2022/10/25 13:06:16;;;;;;;2.17;1.07;;;;;;;;;;5041085;28;20179;-82
2022/10/25 13:08:42;;;;;;;3.67;1.47;;;;;;;;;;5034507;28;20210;-82
2022/10/25 13:11:08;;;;;;;3.93;1.50;;;;;;;;;;5054316;28;20186;-81
2022/10/25 13:13:37;;;;;;;3.17;1.20;;;;;;;;;;5026135;28;20172;-81
2022/10/25 13:16:03;;;;;;;1.80;1.20;;;;;;;;;;5017302;28;20200;-82
2022/10/25 13:18:41;;;;;;;1.70;1.33;;;;;;;;;;5033472;28;20175;-82
2022/10/25 13:21:09;;;;;;;1.83;1.10;;;;;;;;;;5034251;28;20187;-81
2022/10/25 13:23:41;;;;;;;1.57;1.17;;;;;;;;;;5037277;28;20196;-81
2022/10/25 13:26:07;;;;;;;1.20;1.10;;;;;;;;;;5055241;28;20180;-82
2022/10/25 13:28:41;;;;;;;3.10;1.00;;;;;;;;;;5036480;28;20192;-81
2022/10/25 13:31:25;;;;;;;2.03;1.13;;;;;;;;;;5033290;28;20228;-81
2022/10/25 13:34:10;;;;;;;2.07;1.00;;;;;;;;;;5030327;28;20183;-81
2022/10/25 13:36:48;;;;;;;1.37;0.90;;;;;;;;;;5055094;28;20289;-81
2022/10/25 13:39:21;;;;;;;2.30;1.20;;;;;;;;;;5032968;28;20257;-81
2022/10/25 13:41:46;;;;;;;1.60;1.23;;;;;;;;;;5033485;28;20180;-81
2022/10/25 13:44:24;;;;;;;3.03;1.80;;;;;;;;;;5050437;28;20233;-81
2022/10/25 13:46:50;;;;;;;2.43;1.00;;;;;;;;;;5035343;28;20178;-81
2022/10/25 13:49:18;;;;;;;3.10;1.07;;;;;;;;;;5032564;28;20308;-82
2022/10/25 13:51:44;;;;;;;2.83;1.70;;;;;;;;;;5040721;28;20192;-82
2022/10/25 13:54:10;;;;;;;1.30;1.20;;;;;;;;;;5033318;28;20183;-81
2022/10/25 13:56:46;;;;;;;1.10;1.00;;;;;;;;;;5031936;28;20177;-81
2022/10/25 13:59:30;;;;;;;2.83;1.20;;;;;;;;;;5035456;28;20194;-81
2022/10/25 14:02:06;;;;;;;2.20;1.30;;;;;;;;;;5028648;28;20210;-81
2022/10/25 14:04:32;;;;;;;4.27;1.50;;;;;;;;;;5034496;28;20353;-82
2022/10/25 14:07:18;;;;;;;5.77;3.30;;;;;;;;;;5036895;28;20241;-82
2022/10/25 14:09:44;;;;;;;3.30;1.20;;;;;;;;;;5036948;28;20185;-81
2022/10/25 14:12:11;;;;;;;2.87;1.40;;;;;;;;;;5056984;28;20266;-81
2022/10/25 14:14:46;;;;;;;1.63;1.20;;;;;;;;;;5034611;28;20182;-81
2022/10/25 14:17:17;;;;;;;1.10;1.00;;;;;;;;;;5044061;28;20175;-81
2022/10/25 14:19:45;;;;;;;1.50;1.17;;;;;;;;;;5054695;28;20170;-81
2022/10/25 14:22:13;;;;;;;1.50;1.13;;;;;;;;;;5034289;28;20242;-81
2022/10/25 14:24:40;;;;;;;1.10;1.00;;;;;;;;;;5056372;28;20443;-81
2022/10/25 14:27:05;;;;;;;2.00;1.30;;;;;;;;;;5036938;28;20176;-81
2022/10/25 14:29:30;;;;;;;1.77;1.20;;;;;;;;;;5038041;28;20207;-81
2022/10/25 14:31:55;;;;;;;1.50;1.00;;;;;;;;;;5034303;28;20297;-82
2022/10/25 14:34:26;;;;;;;1.10;0.80;;;;;;;;;;5043275;28;20203;-81
2022/10/25 14:36:52;;;;;;;1.73;1.63;;;;;;;;;;5035203;28;20191;-82
2022/10/25 14:39:22;;;;;;;1.53;1.43;;;;;;;;;;5034950;28;20179;-81
2022/10/25 14:41:56;;;;;;;3.53;1.23;;;;;;;;;;5034439;28;20175;-81
2022/10/25 14:44:31;;;;;;;2.30;1.30;;;;;;;;;;5031684;28;20228;-81
2022/10/25 14:46:57;;;;;;;3.33;1.50;;;;;;;;;;5038209;28;20178;-81
2022/10/25 14:49:23;;;;;;;1.10;0.97;;;;;;;;;;5038523;28;20178;-82
2022/10/25 14:51:58;;;;;;;1.07;0.97;;;;;;;;;;5036078;28;20177;-81